sensor_id;sensor_type;location;lat;lon;timestamp;pressure;altitude;pressure_sealevel;temperature;humidity
62800;BME280;48842;51.046;13.796;2023-03-23T00:01:16;99591.47;;;15.51;48.52
62800;BME280;48842;51.046;13.796;2023-03-23T00:03:48;99590.59;;;15.52;48.75
62800;BME280;48842;51.046;13.796;2023-03-23T00:06:14;99590.53;;;15.54;48.42
62800;BME280;48842;51.046;13.796;2023-03-23T00:08:45;99577.28;;;15.56;48.86
62800;BME280;48842;51.046;13.796;2023-03-23T00:11:16;99580.75;;;15.58;48.49
62800;BME280;48842;51.046;13.796;2023-03-23T00:13:43;99578.00;;;15.61;48.72
62800;BME280;48842;51.046;13.796;2023-03-23T00:16:11;99577.94;;;15.64;48.74
62800;BME280;48842;51.046;13.796;2023-03-23T00:18:50;99590.13;;;15.68;48.42
62800;BME280;48842;51.046;13.796;2023-03-23T00:21:22;99587.38;;;15.71;48.19
62800;BME280;48842;51.046;13.796;2023-03-23T00:23:58;99581.09;;;15.75;48.20
62800;BME280;48842;51.046;13.796;2023-03-23T00:26:24;99588.09;;;15.78;48.20
62800;BME280;48842;51.046;13.796;2023-03-23T00:28:53;99592.44;;;15.80;48.46
62800;BME280;48842;51.046;13.796;2023-03-23T00:31:18;99581.78;;;15.83;48.11
62800;BME280;48842;51.046;13.796;2023-03-23T00:33:44;99585.25;;;15.85;48.37
62800;BME280;48842;51.046;13.796;2023-03-23T00:36:13;99585.19;;;15.87;48.47
62800;BME280;48842;51.046;13.796;2023-03-23T00:38:39;99585.97;;;15.91;48.30
62800;BME280;48842;51.046;13.796;2023-03-23T00:41:05;99578.84;;;15.93;48.01
62800;BME280;48842;51.046;13.796;2023-03-23T00:43:32;99582.34;;;15.95;47.98
62800;BME280;48842;51.046;13.796;2023-03-23T00:46:00;99581.41;;;15.96;47.86
62800;BME280;48842;51.046;13.796;2023-03-23T00:48:27;99571.72;;;15.96;47.98
62800;BME280;48842;51.046;13.796;2023-03-23T00:50:52;99573.44;;;15.97;48.11
62800;BME280;48842;51.046;13.796;2023-03-23T00:53:19;99567.25;;;15.98;47.76
62800;BME280;48842;51.046;13.796;2023-03-23T00:55:45;99562.81;;;15.99;47.91
62800;BME280;48842;51.046;13.796;2023-03-23T00:58:12;99566.34;;;15.99;47.88
62800;BME280;48842;51.046;13.796;2023-03-23T01:00:38;99570.75;;;15.99;47.92
62800;BME280;48842;51.046;13.796;2023-03-23T01:03:04;99562.78;;;16.00;48.12
62800;BME280;48842;51.046;13.796;2023-03-23T01:05:29;99553.94;;;16.01;48.36
62800;BME280;48842;51.046;13.796;2023-03-23T01:07:58;99551.25;;;16.03;48.09
62800;BME280;48842;51.046;13.796;2023-03-23T01:10:24;99556.53;;;16.03;48.01
62800;BME280;48842;51.046;13.796;2023-03-23T01:12:50;99555.63;;;16.04;48.10
62800;BME280;48842;51.046;13.796;2023-03-23T01:15:16;99545.06;;;16.04;47.61
62800;BME280;48842;51.046;13.796;2023-03-23T01:17:43;99537.13;;;16.04;47.90
62800;BME280;48842;51.046;13.796;2023-03-23T01:20:09;99531.00;;;16.03;47.93
62800;BME280;48842;51.046;13.796;2023-03-23T01:22:35;99531.00;;;16.03;47.77
62800;BME280;48842;51.046;13.796;2023-03-23T01:25:00;99515.19;;;16.02;47.82
62800;BME280;48842;51.046;13.796;2023-03-23T01:27:25;99523.13;;;16.02;47.96
62800;BME280;48842;51.046;13.796;2023-03-23T01:29:51;99517.84;;;16.02;47.80
62800;BME280;48842;51.046;13.796;2023-03-23T01:32:16;99514.34;;;16.00;47.34
62800;BME280;48842;51.046;13.796;2023-03-23T01:34:41;99516.09;;;16.01;47.29
62800;BME280;48842;51.046;13.796;2023-03-23T01:37:07;99518.69;;;16.02;47.12
62800;BME280;48842;51.046;13.796;2023-03-23T01:39:32;99512.50;;;16.03;46.64
62800;BME280;48842;51.046;13.796;2023-03-23T01:41:57;99511.56;;;16.04;46.74
62800;BME280;48842;51.046;13.796;2023-03-23T01:46:48;99508.03;;;16.05;46.72
62800;BME280;48842;51.046;13.796;2023-03-23T01:49:16;99506.22;;;16.06;46.59
62800;BME280;48842;51.046;13.796;2023-03-23T01:51:46;99496.59;;;16.05;46.76
62800;BME280;48842;51.046;13.796;2023-03-23T01:54:14;99498.31;;;16.06;46.58
62800;BME280;48842;51.046;13.796;2023-03-23T01:57:02;99493.06;;;16.04;46.27
62800;BME280;48842;51.046;13.796;2023-03-23T01:59:29;99500.16;;;16.04;46.23
62800;BME280;48842;51.046;13.796;2023-03-23T02:01:56;99500.16;;;16.04;46.60
62800;BME280;48842;51.046;13.796;2023-03-23T02:04:23;99496.69;;;16.02;46.13
62800;BME280;48842;51.046;13.796;2023-03-23T02:06:50;99493.13;;;16.03;45.75
62800;BME280;48842;51.046;13.796;2023-03-23T02:09:17;99494.00;;;16.03;46.54
62800;BME280;48842;51.046;13.796;2023-03-23T02:11:44;99494.88;;;16.04;46.15
62800;BME280;48842;51.046;13.796;2023-03-23T02:14:09;99497.56;;;16.02;45.99
62800;BME280;48842;51.046;13.796;2023-03-23T02:16:44;99492.28;;;16.02;45.69
62800;BME280;48842;51.046;13.796;2023-03-23T02:22:06;99487.00;;;16.02;45.50
62800;BME280;48842;51.046;13.796;2023-03-23T02:28:02;99491.41;;;16.02;45.25
62800;BME280;48842;51.046;13.796;2023-03-23T02:33:35;99480.91;;;15.99;45.72
62800;BME280;48842;51.046;13.796;2023-03-23T02:36:09;99485.34;;;15.98;45.32
62800;BME280;48842;51.046;13.796;2023-03-23T02:38:43;99479.22;;;15.98;44.91
62800;BME280;48842;51.046;13.796;2023-03-23T02:41:11;99495.00;;;15.99;44.97
62800;BME280;48842;51.046;13.796;2023-03-23T02:43:40;99494.13;;;15.99;45.00
62800;BME280;48842;51.046;13.796;2023-03-23T02:46:08;99486.22;;;15.99;44.69
62800;BME280;48842;51.046;13.796;2023-03-23T02:48:35;99487.94;;;16.00;44.86
62800;BME280;48842;51.046;13.796;2023-03-23T02:51:02;99484.41;;;16.01;44.98
62800;BME280;48842;51.046;13.796;2023-03-23T02:53:29;99481.75;;;16.01;44.94
62800;BME280;48842;51.046;13.796;2023-03-23T02:55:57;99483.53;;;16.00;44.54
62800;BME280;48842;51.046;13.796;2023-03-23T02:58:22;99480.91;;;15.99;44.86
62800;BME280;48842;51.046;13.796;2023-03-23T03:00:49;99479.22;;;15.98;44.68
62800;BME280;48842;51.046;13.796;2023-03-23T03:03:19;99481.03;;;15.96;44.25
62800;BME280;48842;51.046;13.796;2023-03-23T03:06:06;99483.78;;;15.93;44.78
62800;BME280;48842;51.046;13.796;2023-03-23T03:08:45;99478.59;;;15.90;44.16
62800;BME280;48842;51.046;13.796;2023-03-23T03:11:15;99480.44;;;15.87;44.38
62800;BME280;48842;51.046;13.796;2023-03-23T03:14:00;99474.31;;;15.85;44.38
62800;BME280;48842;51.046;13.796;2023-03-23T03:19:11;99485.75;;;15.86;44.14
62800;BME280;48842;51.046;13.796;2023-03-23T03:21:41;99475.09;;;15.89;44.24
62800;BME280;48842;51.046;13.796;2023-03-23T03:24:08;99468.84;;;15.92;44.01
62800;BME280;48842;51.046;13.796;2023-03-23T03:26:37;99471.41;;;15.95;44.58
62800;BME280;48842;51.046;13.796;2023-03-23T03:29:04;99469.59;;;15.95;44.47
62800;BME280;48842;51.046;13.796;2023-03-23T03:31:40;99474.84;;;15.97;44.70
62800;BME280;48842;51.046;13.796;2023-03-23T03:34:11;99469.50;;;15.98;43.88
62800;BME280;48842;51.046;13.796;2023-03-23T03:36:36;99466.81;;;16.00;44.02
62800;BME280;48842;51.046;13.796;2023-03-23T03:39:07;99466.81;;;16.00;44.18
62800;BME280;48842;51.046;13.796;2023-03-23T03:41:35;99468.56;;;16.01;44.81
62800;BME280;48842;51.046;13.796;2023-03-23T03:44:02;99468.50;;;16.02;44.41
62800;BME280;48842;51.046;13.796;2023-03-23T03:46:27;99463.16;;;16.04;44.67
62800;BME280;48842;51.046;13.796;2023-03-23T03:48:55;99464.91;;;16.05;44.75
62800;BME280;48842;51.046;13.796;2023-03-23T03:51:21;99457.88;;;16.04;44.91
62800;BME280;48842;51.046;13.796;2023-03-23T03:53:47;99461.44;;;16.03;44.56
62800;BME280;48842;51.046;13.796;2023-03-23T03:56:12;99458.72;;;16.04;44.72
62800;BME280;48842;51.046;13.796;2023-03-23T03:58:38;99463.09;;;16.05;44.38
62800;BME280;48842;51.046;13.796;2023-03-23T04:01:04;99464.91;;;16.05;44.80
62800;BME280;48842;51.046;13.796;2023-03-23T04:03:29;99463.97;;;16.06;44.34
62800;BME280;48842;51.046;13.796;2023-03-23T04:05:55;99461.28;;;16.08;44.45
62800;BME280;48842;51.046;13.796;2023-03-23T04:08:23;99462.16;;;16.08;44.96
62800;BME280;48842;51.046;13.796;2023-03-23T04:10:49;99457.66;;;16.10;44.42
62800;BME280;48842;51.046;13.796;2023-03-23T04:13:15;99460.31;;;16.10;44.75
62800;BME280;48842;51.046;13.796;2023-03-23T04:15:41;99457.66;;;16.10;44.98
62800;BME280;48842;51.046;13.796;2023-03-23T04:18:06;99452.38;;;16.10;44.71
62800;BME280;48842;51.046;13.796;2023-03-23T04:20:32;99454.13;;;16.11;44.19
62800;BME280;48842;51.046;13.796;2023-03-23T04:22:57;99450.56;;;16.12;44.38
62800;BME280;48842;51.046;13.796;2023-03-23T04:25:23;99455.81;;;16.14;44.09
62800;BME280;48842;51.046;13.796;2023-03-23T04:27:50;99442.59;;;16.14;44.27
62800;BME280;48842;51.046;13.796;2023-03-23T04:30:23;99444.34;;;16.13;44.57
62800;BME280;48842;51.046;13.796;2023-03-23T04:32:50;99440.81;;;16.14;44.50
62800;BME280;48842;51.046;13.796;2023-03-23T04:35:18;99440.81;;;16.14;44.61
62800;BME280;48842;51.046;13.796;2023-03-23T04:37:44;99444.28;;;16.15;44.38
62800;BME280;48842;51.046;13.796;2023-03-23T04:40:10;99443.44;;;16.14;44.45
62800;BME280;48842;51.046;13.796;2023-03-23T04:42:41;99436.44;;;16.13;44.28
62800;BME280;48842;51.046;13.796;2023-03-23T04:45:10;99432.97;;;16.11;44.47
62800;BME280;48842;51.046;13.796;2023-03-23T04:47:36;99434.78;;;16.11;44.43
62800;BME280;48842;51.046;13.796;2023-03-23T04:50:09;99436.53;;;16.10;44.41
62800;BME280;48842;51.046;13.796;2023-03-23T04:52:35;99438.38;;;16.08;45.06
62800;BME280;48842;51.046;13.796;2023-03-23T04:55:06;99434.84;;;16.08;44.29
62800;BME280;48842;51.046;13.796;2023-03-23T04:57:32;99434.84;;;16.08;44.24
62800;BME280;48842;51.046;13.796;2023-03-23T04:59:59;99443.66;;;16.08;44.50
62800;BME280;48842;51.046;13.796;2023-03-23T05:02:25;99437.50;;;16.08;44.23
62800;BME280;48842;51.046;13.796;2023-03-23T05:04:55;99438.38;;;16.08;45.07
62800;BME280;48842;51.046;13.796;2023-03-23T05:07:20;99433.09;;;16.08;44.73
62800;BME280;48842;51.046;13.796;2023-03-23T05:09:48;99418.97;;;16.09;44.57
62800;BME280;48842;51.046;13.796;2023-03-23T05:12:14;99418.09;;;16.09;44.57
62800;BME280;48842;51.046;13.796;2023-03-23T05:14:40;99426.03;;;16.09;44.87
62800;BME280;48842;51.046;13.796;2023-03-23T05:17:06;99431.31;;;16.09;44.51
62800;BME280;48842;51.046;13.796;2023-03-23T05:19:32;99442.69;;;16.11;44.88
62800;BME280;48842;51.046;13.796;2023-03-23T05:21:58;99440.06;;;16.11;44.78
62800;BME280;48842;51.046;13.796;2023-03-23T05:24:29;99438.28;;;16.11;44.76
62800;BME280;48842;51.046;13.796;2023-03-23T05:26:56;99440.00;;;16.12;44.61
62800;BME280;48842;51.046;13.796;2023-03-23T05:29:22;99440.00;;;16.12;44.20
62800;BME280;48842;51.046;13.796;2023-03-23T05:31:49;99428.50;;;16.13;44.09
62800;BME280;48842;51.046;13.796;2023-03-23T05:34:14;99431.13;;;16.13;44.75
62800;BME280;48842;51.046;13.796;2023-03-23T05:36:41;99427.59;;;16.14;44.69
62800;BME280;48842;51.046;13.796;2023-03-23T05:39:09;99426.63;;;16.17;44.33
62800;BME280;48842;51.046;13.796;2023-03-23T05:41:35;99422.19;;;16.17;44.26
62800;BME280;48842;51.046;13.796;2023-03-23T05:44:00;99437.09;;;16.20;44.21
62800;BME280;48842;51.046;13.796;2023-03-23T05:46:25;99432.66;;;16.20;44.52
62800;BME280;48842;51.046;13.796;2023-03-23T05:48:51;99438.78;;;16.22;44.27
62800;BME280;48842;51.046;13.796;2023-03-23T05:51:18;99423.72;;;16.25;43.94
62800;BME280;48842;51.046;13.796;2023-03-23T05:53:44;99426.31;;;16.26;44.35
62800;BME280;48842;51.046;13.796;2023-03-23T05:56:09;99424.50;;;16.28;44.32
62800;BME280;48842;51.046;13.796;2023-03-23T05:58:34;99427.09;;;16.30;43.95
62800;BME280;48842;51.046;13.796;2023-03-23T06:00:59;99431.31;;;16.34;44.05
62800;BME280;48842;51.046;13.796;2023-03-23T06:03:25;99433.94;;;16.35;43.90
62800;BME280;48842;51.046;13.796;2023-03-23T06:05:50;99430.34;;;16.36;43.96
62800;BME280;48842;51.046;13.796;2023-03-23T06:08:15;99433.88;;;16.37;45.45
62800;BME280;48842;51.046;13.796;2023-03-23T06:10:41;99439.22;;;16.35;45.49
62800;BME280;48842;51.046;13.796;2023-03-23T06:13:06;99450.75;;;16.33;45.31
62800;BME280;48842;51.046;13.796;2023-03-23T06:15:31;99456.16;;;16.30;46.49
62800;BME280;48842;51.046;13.796;2023-03-23T06:17:59;99450.94;;;16.28;46.20
62800;BME280;48842;51.046;13.796;2023-03-23T06:20:24;99438.66;;;16.26;47.51
62800;BME280;48842;51.046;13.796;2023-03-23T06:22:49;99438.78;;;16.22;48.17
62800;BME280;48842;51.046;13.796;2023-03-23T06:25:16;99439.75;;;16.20;48.55
62800;BME280;48842;51.046;13.796;2023-03-23T06:27:41;99436.28;;;16.18;48.64
62800;BME280;48842;51.046;13.796;2023-03-23T06:30:07;99429.22;;;16.18;47.72
62800;BME280;48842;51.046;13.796;2023-03-23T06:32:42;99430.06;;;16.19;49.19
62800;BME280;48842;51.046;13.796;2023-03-23T06:35:13;99430.97;;;16.19;49.36
62800;BME280;48842;51.046;13.796;2023-03-23T06:37:38;99437.09;;;16.20;48.27
62800;BME280;48842;51.046;13.796;2023-03-23T06:40:04;99434.41;;;16.21;47.76
62800;BME280;48842;51.046;13.796;2023-03-23T06:42:33;99435.13;;;16.25;47.64
62800;BME280;48842;51.046;13.796;2023-03-23T06:44:59;99440.41;;;16.27;46.83
62800;BME280;48842;51.046;13.796;2023-03-23T06:47:26;99447.28;;;16.31;45.57
62800;BME280;48842;51.046;13.796;2023-03-23T06:49:52;99442.84;;;16.33;45.01
62800;BME280;48842;51.046;13.796;2023-03-23T06:52:18;99448.00;;;16.36;44.33
62800;BME280;48842;51.046;13.796;2023-03-23T06:54:43;99452.28;;;16.40;43.63
62800;BME280;48842;51.046;13.796;2023-03-23T06:57:09;99460.22;;;16.40;43.39
62800;BME280;48842;51.046;13.796;2023-03-23T06:59:34;99458.19;;;16.47;43.63
62800;BME280;48842;51.046;13.796;2023-03-23T07:01:59;99459.13;;;16.46;42.79
62800;BME280;48842;51.046;13.796;2023-03-23T07:04:25;99457.22;;;16.49;42.28
62800;BME280;48842;51.046;13.796;2023-03-23T07:06:50;99459.41;;;16.63;42.69
62800;BME280;48842;51.046;13.796;2023-03-23T07:09:15;99465.97;;;16.51;41.91
62800;BME280;48842;51.046;13.796;2023-03-23T07:11:41;99470.78;;;16.65;42.10
62800;BME280;48842;51.046;13.796;2023-03-23T07:14:07;99474.78;;;16.77;41.46
62800;BME280;48842;51.046;13.796;2023-03-23T07:16:32;99466.78;;;16.79;41.02
62800;BME280;48842;51.046;13.796;2023-03-23T07:18:58;99462.06;;;16.88;41.18
62800;BME280;48842;51.046;13.796;2023-03-23T07:21:24;99466.28;;;16.94;41.44
62800;BME280;48842;51.046;13.796;2023-03-23T07:23:49;99467.91;;;16.98;41.13
62800;BME280;48842;51.046;13.796;2023-03-23T07:26:15;99464.38;;;16.98;40.79
62800;BME280;48842;51.046;13.796;2023-03-23T07:28:40;99464.59;;;17.15;41.54
62800;BME280;48842;51.046;13.796;2023-03-23T07:31:06;99469.03;;;17.15;40.84
62800;BME280;48842;51.046;13.796;2023-03-23T07:33:33;99471.63;;;17.16;40.67
62800;BME280;48842;51.046;13.796;2023-03-23T07:35:59;99471.50;;;17.19;40.41
62800;BME280;48842;51.046;13.796;2023-03-23T07:38:26;99478.19;;;17.30;40.52
62800;BME280;48842;51.046;13.796;2023-03-23T07:40:52;99486.81;;;17.35;40.82
62800;BME280;48842;51.046;13.796;2023-03-23T07:43:18;99487.81;;;17.32;40.81
62800;BME280;48842;51.046;13.796;2023-03-23T07:45:44;99483.94;;;17.41;40.63
62800;BME280;48842;51.046;13.796;2023-03-23T07:48:10;99481.63;;;17.32;40.52
62800;BME280;48842;51.046;13.796;2023-03-23T07:50:35;99487.84;;;17.31;40.58
62800;BME280;48842;51.046;13.796;2023-03-23T07:53:02;99490.91;;;17.43;40.61
62800;BME280;48842;51.046;13.796;2023-03-23T07:55:27;99499.00;;;17.39;40.61
62800;BME280;48842;51.046;13.796;2023-03-23T07:57:53;99505.19;;;17.39;40.55
62800;BME280;48842;51.046;13.796;2023-03-23T08:00:20;99495.44;;;17.40;40.23
62800;BME280;48842;51.046;13.796;2023-03-23T08:02:46;99500.38;;;17.49;40.94
62800;BME280;48842;51.046;13.796;2023-03-23T08:05:13;99510.47;;;17.39;40.65
62800;BME280;48842;51.046;13.796;2023-03-23T08:07:39;99503.66;;;17.56;40.86
62800;BME280;48842;51.046;13.796;2023-03-23T08:10:06;99507.03;;;17.59;40.74
62800;BME280;48842;51.046;13.796;2023-03-23T08:12:35;99503.41;;;17.62;40.76
62800;BME280;48842;51.046;13.796;2023-03-23T08:15:01;99524.78;;;17.57;40.70
62800;BME280;48842;51.046;13.796;2023-03-23T08:17:26;99504.41;;;17.36;40.79
62800;BME280;48842;51.046;13.796;2023-03-23T08:19:51;99509.38;;;17.45;40.60
62800;BME280;48842;51.046;13.796;2023-03-23T08:22:17;99516.91;;;17.56;40.72
62800;BME280;48842;51.046;13.796;2023-03-23T08:24:43;99528.47;;;17.30;41.13
62800;BME280;48842;51.046;13.796;2023-03-23T08:27:08;99514.75;;;17.42;40.93
62800;BME280;48842;51.046;13.796;2023-03-23T08:29:34;99517.03;;;17.53;41.08
62800;BME280;48842;51.046;13.796;2023-03-23T08:32:00;99524.72;;;17.59;41.24
62800;BME280;48842;51.046;13.796;2023-03-23T08:34:27;99521.91;;;17.40;40.80
62800;BME280;48842;51.046;13.796;2023-03-23T08:36:54;99534.00;;;17.47;41.08
62800;BME280;48842;51.046;13.796;2023-03-23T08:39:20;99532.28;;;17.46;41.32
62800;BME280;48842;51.046;13.796;2023-03-23T08:41:47;99538.94;;;17.33;41.30
62800;BME280;48842;51.046;13.796;2023-03-23T08:44:13;99535.09;;;17.41;41.16
62800;BME280;48842;51.046;13.796;2023-03-23T08:46:39;99525.59;;;17.36;41.41
62800;BME280;48842;51.046;13.796;2023-03-23T08:49:04;99524.56;;;17.40;41.37
62800;BME280;48842;51.046;13.796;2023-03-23T08:51:30;99542.97;;;17.43;41.90
62800;BME280;48842;51.046;13.796;2023-03-23T08:53:56;99535.16;;;17.40;41.58
62800;BME280;48842;51.046;13.796;2023-03-23T08:56:21;99532.16;;;17.49;41.72
62800;BME280;48842;51.046;13.796;2023-03-23T08:58:47;99545.44;;;17.48;41.84
62800;BME280;48842;51.046;13.796;2023-03-23T09:01:13;99537.00;;;17.38;41.95
62800;BME280;48842;51.046;13.796;2023-03-23T09:03:38;99530.88;;;17.36;41.86
62800;BME280;48842;51.046;13.796;2023-03-23T09:06:06;99535.91;;;17.43;42.42
62800;BME280;48842;51.046;13.796;2023-03-23T09:08:32;99538.56;;;17.43;42.44
62800;BME280;48842;51.046;13.796;2023-03-23T09:11:02;99535.88;;;17.45;42.55
62800;BME280;48842;51.046;13.796;2023-03-23T09:13:28;99526.84;;;17.49;42.52
62800;BME280;48842;51.046;13.796;2023-03-23T09:15:53;99539.88;;;17.55;42.39
62800;BME280;48842;51.046;13.796;2023-03-23T09:18:19;99541.03;;;17.48;42.88
62800;BME280;48842;51.046;13.796;2023-03-23T09:20:45;99546.34;;;17.48;43.15
62800;BME280;48842;51.046;13.796;2023-03-23T09:23:11;99547.25;;;17.47;43.04
62800;BME280;48842;51.046;13.796;2023-03-23T09:25:38;99546.34;;;17.48;43.62
62800;BME280;48842;51.046;13.796;2023-03-23T09:28:03;99543.22;;;17.60;43.16
62800;BME280;48842;51.046;13.796;2023-03-23T09:30:31;99542.06;;;17.68;43.68
62800;BME280;48842;51.046;13.796;2023-03-23T09:32:59;99546.69;;;17.62;43.94
62800;BME280;48842;51.046;13.796;2023-03-23T09:35:27;99552.53;;;17.71;44.10
62800;BME280;48842;51.046;13.796;2023-03-23T09:37:52;99550.69;;;17.73;44.47
62800;BME280;48842;51.046;13.796;2023-03-23T09:45:43;99565.44;;;17.56;45.53
62800;BME280;48842;51.046;13.796;2023-03-23T09:48:33;99569.06;;;17.54;45.80
62800;BME280;48842;51.046;13.796;2023-03-23T09:51:14;99572.81;;;17.48;46.69
62800;BME280;48842;51.046;13.796;2023-03-23T09:53:49;99562.72;;;17.58;46.39
62800;BME280;48842;51.046;13.796;2023-03-23T09:56:15;99568.31;;;17.26;46.93
62800;BME280;48842;51.046;13.796;2023-03-23T09:59:34;99564.88;;;17.48;46.79
62800;BME280;48842;51.046;13.796;2023-03-23T10:01:35;99556.56;;;17.57;46.86
62800;BME280;48842;51.046;13.796;2023-03-23T10:04:15;99550.91;;;17.67;47.48
62800;BME280;48842;51.046;13.796;2023-03-23T10:06:45;99560.22;;;17.77;46.67
62800;BME280;48842;51.046;13.796;2023-03-23T10:09:15;99562.22;;;17.95;47.05
62800;BME280;48842;51.046;13.796;2023-03-23T10:12:02;99559.81;;;18.11;46.93
62800;BME280;48842;51.046;13.796;2023-03-23T10:14:48;99562.53;;;18.10;45.84
62800;BME280;48842;51.046;13.796;2023-03-23T10:17:23;99559.75;;;18.13;45.71
62800;BME280;48842;51.046;13.796;2023-03-23T10:22:31;99545.53;;;18.16;45.72
62800;BME280;48842;51.046;13.796;2023-03-23T10:25:10;99555.69;;;17.80;46.26
62800;BME280;48842;51.046;13.796;2023-03-23T10:27:51;99560.00;;;18.07;46.13
62800;BME280;48842;51.046;13.796;2023-03-23T10:33:03;99557.41;;;18.27;46.04
62800;BME280;48842;51.046;13.796;2023-03-23T10:36:00;99548.41;;;18.31;45.06
62800;BME280;48842;51.046;13.796;2023-03-23T10:38:36;99552.34;;;18.43;44.75
62800;BME280;48842;51.046;13.796;2023-03-23T10:41:13;99550.19;;;18.53;44.69
62800;BME280;48842;51.046;13.796;2023-03-23T10:43:39;99540.28;;;18.57;44.27
62800;BME280;48842;51.046;13.796;2023-03-23T10:48:59;99542.38;;;18.71;44.36
62800;BME280;48842;51.046;13.796;2023-03-23T10:51:37;99535.47;;;18.66;43.90
62800;BME280;48842;51.046;13.796;2023-03-23T10:54:05;99528.16;;;18.72;43.85
62800;BME280;48842;51.046;13.796;2023-03-23T10:56:40;99539.53;;;18.75;44.18
62800;BME280;48842;51.046;13.796;2023-03-23T10:59:15;99530.44;;;18.81;43.91
62800;BME280;48842;51.046;13.796;2023-03-23T11:01:44;99536.22;;;18.91;43.98
62800;BME280;48842;51.046;13.796;2023-03-23T11:04:12;99533.97;;;19.02;43.82
62800;BME280;48842;51.046;13.796;2023-03-23T11:06:37;99530.03;;;19.11;44.29
62800;BME280;48842;51.046;13.796;2023-03-23T11:09:15;99531.72;;;19.13;43.81
62800;BME280;48842;51.046;13.796;2023-03-23T11:11:53;99536.41;;;19.07;44.04
62800;BME280;48842;51.046;13.796;2023-03-23T11:14:28;99547.66;;;18.93;43.43
62800;BME280;48842;51.046;13.796;2023-03-23T11:16:58;99548.06;;;18.82;43.88
62800;BME280;48842;51.046;13.796;2023-03-23T11:19:30;99551.81;;;18.78;44.16
62800;BME280;48842;51.046;13.796;2023-03-23T11:22:08;99550.47;;;18.67;44.21
62800;BME280;48842;51.046;13.796;2023-03-23T11:24:37;99554.84;;;18.69;44.32
62800;BME280;48842;51.046;13.796;2023-03-23T11:27:06;99555.59;;;18.72;44.39
62800;BME280;48842;51.046;13.796;2023-03-23T11:29:34;99559.75;;;18.78;44.12
62800;BME280;48842;51.046;13.796;2023-03-23T11:34:40;99552.31;;;18.65;44.99
62800;BME280;48842;51.046;13.796;2023-03-23T11:37:30;99553.13;;;18.67;45.01
62800;BME280;48842;51.046;13.796;2023-03-23T11:42:34;99551.75;;;18.57;45.20
62800;BME280;48842;51.046;13.796;2023-03-23T11:50:51;99575.78;;;18.32;45.90
62800;BME280;48842;51.046;13.796;2023-03-23T11:53:37;99582.06;;;18.29;46.49
62800;BME280;48842;51.046;13.796;2023-03-23T11:56:23;99577.00;;;18.23;46.61
62800;BME280;48842;51.046;13.796;2023-03-23T11:58:50;99587.13;;;18.13;47.22
62800;BME280;48842;51.046;13.796;2023-03-23T12:01:41;99596.94;;;17.64;48.07
62800;BME280;48842;51.046;13.796;2023-03-23T12:07:46;99595.69;;;17.49;49.12
62800;BME280;48842;51.046;13.796;2023-03-23T12:16:00;99595.03;;;17.44;50.15
62800;BME280;48842;51.046;13.796;2023-03-23T12:18:55;99598.88;;;17.35;50.07
62800;BME280;48842;51.046;13.796;2023-03-23T12:21:36;99594.97;;;17.45;49.88
62800;BME280;48842;51.046;13.796;2023-03-23T12:27:25;99583.53;;;17.69;49.86
62800;BME280;48842;51.046;13.796;2023-03-23T12:43:20;99573.72;;;17.94;49.22
62800;BME280;48842;51.046;13.796;2023-03-23T12:45:50;99567.44;;;17.97;49.00
62800;BME280;48842;51.046;13.796;2023-03-23T12:48:26;99566.53;;;17.98;48.81
62800;BME280;48842;51.046;13.796;2023-03-23T12:51:08;99558.09;;;17.87;48.43
62800;BME280;48842;51.046;13.796;2023-03-23T12:53:49;99560.38;;;17.98;48.56
62800;BME280;48842;51.046;13.796;2023-03-23T12:56:28;99560.31;;;17.99;48.40
62800;BME280;48842;51.046;13.796;2023-03-23T12:59:10;99557.13;;;17.89;48.62
62800;BME280;48842;51.046;13.796;2023-03-23T13:01:44;99555.47;;;17.63;47.71
62800;BME280;48842;51.046;13.796;2023-03-23T13:04:21;99554.84;;;17.80;48.09
62800;BME280;48842;51.046;13.796;2023-03-23T13:06:48;99550.00;;;17.91;48.41
62800;BME280;48842;51.046;13.796;2023-03-23T13:09:34;99558.97;;;17.87;47.81
62800;BME280;48842;51.046;13.796;2023-03-23T13:12:02;99557.66;;;17.99;47.87
62800;BME280;48842;51.046;13.796;2023-03-23T13:14:37;99565.31;;;18.07;47.53
62800;BME280;48842;51.046;13.796;2023-03-23T13:17:12;99562.47;;;18.11;47.77
62800;BME280;48842;51.046;13.796;2023-03-23T13:22:47;99555.38;;;18.12;47.18
62800;BME280;48842;51.046;13.796;2023-03-23T13:28:02;99546.13;;;18.22;47.01
62800;BME280;48842;51.046;13.796;2023-03-23T13:30:28;99551.47;;;18.21;46.85
62800;BME280;48842;51.046;13.796;2023-03-23T13:33:04;99539.91;;;18.23;46.95
62800;BME280;48842;51.046;13.796;2023-03-23T13:35:36;99530.78;;;18.30;46.77
62800;BME280;48842;51.046;13.796;2023-03-23T13:38:23;99539.53;;;18.33;46.80
62800;BME280;48842;51.046;13.796;2023-03-23T13:40:49;99538.06;;;18.25;45.43
62800;BME280;48842;51.046;13.796;2023-03-23T13:43:31;99530.41;;;18.18;45.11
62800;BME280;48842;51.046;13.796;2023-03-23T13:48:48;99513.03;;;18.33;44.50
62800;BME280;48842;51.046;13.796;2023-03-23T13:51:33;99510.91;;;18.41;44.11
62800;BME280;48842;51.046;13.796;2023-03-23T13:54:14;99515.03;;;18.48;44.33
62800;BME280;48842;51.046;13.796;2023-03-23T14:01:51;99514.47;;;18.40;44.22
62800;BME280;48842;51.046;13.796;2023-03-23T14:04:17;99503.00;;;18.39;43.91
62800;BME280;48842;51.046;13.796;2023-03-23T14:06:45;99506.56;;;18.60;43.97
62800;BME280;48842;51.046;13.796;2023-03-23T14:09:23;99506.88;;;18.73;43.68
62800;BME280;48842;51.046;13.796;2023-03-23T14:11:59;99503.19;;;18.98;43.69
62800;BME280;48842;51.046;13.796;2023-03-23T14:14:32;99499.84;;;19.13;43.26
62800;BME280;48842;51.046;13.796;2023-03-23T14:17:13;99501.28;;;19.21;42.83
62800;BME280;48842;51.046;13.796;2023-03-23T14:19:41;99497.72;;;19.41;43.25